createdAt,value
2017-10-17T00:00:02.230Z,1014.58
2017-10-17T00:01:02.207Z,1014.61
2017-10-17T00:02:02.185Z,1014.59
2017-10-17T00:03:02.163Z,1014.59
2017-10-17T00:04:02.141Z,1014.62
2017-10-17T00:05:02.123Z,1014.57
2017-10-17T00:06:02.103Z,1014.58
2017-10-17T00:07:02.079Z,1014.61
2017-10-17T00:08:02.057Z,1014.63
2017-10-17T00:09:02.037Z,1014.6
2017-10-17T00:10:02.014Z,1014.64
2017-10-17T00:11:01.993Z,1014.63
2017-10-17T00:12:01.974Z,1014.64
2017-10-17T00:13:01.949Z,1014.58
2017-10-17T00:14:01.930Z,1014.6
2017-10-17T00:15:01.907Z,1014.6
2017-10-17T00:16:01.885Z,1014.57
2017-10-17T00:17:01.865Z,1014.61
2017-10-17T00:18:01.850Z,1014.61
2017-10-17T00:19:01.827Z,1014.59
2017-10-17T00:20:01.801Z,1014.57
2017-10-17T00:21:01.780Z,1014.58
2017-10-17T00:22:01.757Z,1014.52
2017-10-17T00:23:01.738Z,1014.53
2017-10-17T00:24:01.716Z,1014.57
2017-10-17T00:25:01.694Z,1014.57
2017-10-17T00:26:01.680Z,1014.55
2017-10-17T00:27:01.653Z,1014.6
2017-10-17T00:28:01.632Z,1014.58
2017-10-17T00:29:01.612Z,1014.61
2017-10-17T00:30:01.588Z,1014.59
2017-10-17T00:31:01.567Z,1014.55
2017-10-17T00:32:01.546Z,1014.57
2017-10-17T00:33:01.525Z,1014.57
2017-10-17T00:34:01.502Z,1014.52
2017-10-17T00:35:01.481Z,1014.56
2017-10-17T00:36:01.461Z,1014.55
2017-10-17T00:37:01.438Z,1014.56
2017-10-17T00:38:01.417Z,1014.53
2017-10-17T00:39:01.396Z,1014.54
2017-10-17T00:40:01.376Z,1014.58
2017-10-17T00:41:01.353Z,1014.57
2017-10-17T00:42:01.332Z,1014.5
2017-10-17T00:43:01.314Z,1014.55
2017-10-17T00:44:01.297Z,1014.55
2017-10-17T00:45:01.289Z,1014.54
2017-10-17T00:46:01.247Z,1014.56
2017-10-17T00:47:01.226Z,1014.54
2017-10-17T00:48:01.209Z,1014.58
2017-10-17T00:49:01.181Z,1014.53
2017-10-17T00:50:01.165Z,1014.57
2017-10-17T00:51:01.141Z,1014.53
2017-10-17T00:52:01.118Z,1014.54
2017-10-17T00:53:01.097Z,1014.52
2017-10-17T00:54:01.079Z,1014.55
2017-10-17T00:55:01.060Z,1014.54
2017-10-17T00:56:01.035Z,1014.56
2017-10-17T00:57:01.015Z,1014.56
2017-10-17T00:58:00.991Z,1014.55
2017-10-17T00:59:00.969Z,1014.55
2017-10-17T01:00:00.948Z,1014.53
2017-10-17T01:01:00.925Z,1014.53
2017-10-17T01:02:00.910Z,1014.54
2017-10-17T01:03:00.905Z,1014.58
2017-10-17T01:04:00.865Z,1014.53
2017-10-17T01:05:00.840Z,1014.52
2017-10-17T01:06:00.817Z,1014.59
2017-10-17T01:07:00.798Z,1014.57
2017-10-17T01:08:00.776Z,1014.61
2017-10-17T01:09:00.756Z,1014.62
2017-10-17T01:10:00.735Z,1014.58
2017-10-17T01:11:00.716Z,1014.57
2017-10-17T01:12:00.692Z,1014.57
2017-10-17T01:13:00.671Z,1014.61
2017-10-17T01:14:00.645Z,1014.65
2017-10-17T01:15:00.626Z,1014.56
2017-10-17T01:16:00.609Z,1014.6
2017-10-17T01:17:00.583Z,1014.6
2017-10-17T01:18:00.573Z,1014.57
2017-10-17T01:19:00.546Z,1014.57
2017-10-17T01:20:00.520Z,1014.6
2017-10-17T01:21:00.498Z,1014.62
2017-10-17T01:22:00.481Z,1014.6
2017-10-17T01:23:00.457Z,1014.58
2017-10-17T01:24:00.435Z,1014.6
2017-10-17T01:25:00.413Z,1014.62
2017-10-17T01:26:00.392Z,1014.65
2017-10-17T01:27:00.371Z,1014.65
2017-10-17T01:28:00.348Z,1014.69
2017-10-17T01:29:00.328Z,1014.71
2017-10-17T01:30:00.306Z,1014.69
2017-10-17T01:31:00.285Z,1014.7
2017-10-17T01:32:00.267Z,1014.77
2017-10-17T01:33:00.248Z,1014.68
2017-10-17T01:34:00.220Z,1014.66
2017-10-17T01:35:00.199Z,1014.7
2017-10-17T01:36:00.178Z,1014.67
2017-10-17T01:37:00.155Z,1014.61
2017-10-17T01:38:00.134Z,1014.58
2017-10-17T01:39:00.113Z,1014.6
2017-10-17T01:40:00.091Z,1014.59
2017-10-17T01:41:00.070Z,1014.58
2017-10-17T01:42:00.049Z,1014.55
2017-10-17T01:43:00.032Z,1014.56
2017-10-17T01:44:00.009Z,1014.55
2017-10-17T01:44:59.985Z,1014.59
2017-10-17T01:45:59.965Z,1014.56
2017-10-17T01:46:59.940Z,1014.58
2017-10-17T01:47:59.924Z,1014.55
2017-10-17T01:48:59.898Z,1014.59
2017-10-17T01:49:59.886Z,1014.58
2017-10-17T01:50:59.858Z,1014.64
2017-10-17T01:51:59.832Z,1014.62
2017-10-17T01:52:59.813Z,1014.63
2017-10-17T01:53:59.791Z,1014.69
2017-10-17T01:54:59.769Z,1014.69
2017-10-17T01:55:59.748Z,1014.63
2017-10-17T01:56:59.728Z,1014.66
2017-10-17T01:57:59.703Z,1014.66
2017-10-17T01:58:59.683Z,1014.62
2017-10-17T01:59:59.662Z,1014.65
2017-10-17T02:00:59.642Z,1014.66
2017-10-17T02:01:59.618Z,1014.63
2017-10-17T02:02:59.597Z,1014.61
2017-10-17T02:03:59.579Z,1014.63
2017-10-17T02:04:59.559Z,1014.64
2017-10-17T02:05:59.531Z,1014.62
2017-10-17T02:06:59.511Z,1014.66
2017-10-17T02:07:59.489Z,1014.63
2017-10-17T02:08:59.467Z,1014.63
2017-10-17T02:09:59.447Z,1014.63
2017-10-17T02:10:59.425Z,1014.62
2017-10-17T02:11:59.402Z,1014.6
2017-10-17T02:12:59.381Z,1014.62
2017-10-17T02:13:59.358Z,1014.63
2017-10-17T02:14:59.338Z,1014.67
2017-10-17T02:15:59.315Z,1014.66
2017-10-17T02:16:59.293Z,1014.65
2017-10-17T02:17:59.273Z,1014.69
2017-10-17T02:18:59.252Z,1014.67
2017-10-17T02:19:59.231Z,1014.7
2017-10-17T02:20:59.210Z,1014.66
2017-10-17T02:21:59.188Z,1014.66
2017-10-17T02:22:59.165Z,1014.65
2017-10-17T02:23:59.143Z,1014.69
2017-10-17T02:24:59.123Z,1014.63
2017-10-17T02:25:59.104Z,1014.6
2017-10-17T02:26:59.082Z,1014.66
2017-10-17T02:27:59.058Z,1014.7
2017-10-17T02:28:59.035Z,1014.65
2017-10-17T02:29:59.016Z,1014.66
2017-10-17T02:30:58.993Z,1014.67
2017-10-17T02:31:58.970Z,1014.7
2017-10-17T02:32:58.950Z,1014.72
2017-10-17T02:33:58.928Z,1014.68
2017-10-17T02:34:58.905Z,1014.67
2017-10-17T02:35:58.885Z,1014.72
2017-10-17T02:36:58.872Z,1014.73
2017-10-17T02:37:58.849Z,1014.78
2017-10-17T02:38:58.817Z,1014.78
2017-10-17T02:39:58.803Z,1014.78
2017-10-17T02:40:58.775Z,1014.75
2017-10-17T02:41:58.756Z,1014.79
2017-10-17T02:42:58.736Z,1014.79
2017-10-17T02:43:58.711Z,1014.78
2017-10-17T02:44:58.690Z,1014.77
2017-10-17T02:45:58.669Z,1014.77
2017-10-17T02:46:58.646Z,1014.77
2017-10-17T02:47:58.629Z,1014.8
2017-10-17T02:48:58.605Z,1014.84
2017-10-17T02:49:58.582Z,1014.83
2017-10-17T02:50:58.560Z,1014.85
2017-10-17T02:51:58.540Z,1014.83
2017-10-17T02:52:58.519Z,1014.83
2017-10-17T02:53:58.497Z,1014.82
2017-10-17T02:54:58.490Z,1014.87
2017-10-17T02:55:58.452Z,1014.83
2017-10-17T02:56:58.436Z,1014.82
2017-10-17T02:57:58.412Z,1014.81
2017-10-17T02:58:58.389Z,1014.84
2017-10-17T02:59:58.366Z,1014.83
2017-10-17T03:00:58.344Z,1014.88
2017-10-17T03:01:58.323Z,1014.79
2017-10-17T03:02:58.305Z,1014.83
2017-10-17T03:03:58.280Z,1014.81
2017-10-17T03:04:58.264Z,1014.78
2017-10-17T03:05:58.238Z,1014.83
2017-10-17T03:06:58.215Z,1014.8
2017-10-17T03:07:58.194Z,1014.82
2017-10-17T03:08:58.173Z,1014.8
2017-10-17T03:09:58.151Z,1014.83
2017-10-17T03:10:58.129Z,1014.84
2017-10-17T03:11:58.108Z,1014.9
2017-10-17T03:12:58.091Z,1014.88
2017-10-17T03:13:58.067Z,1014.85
2017-10-17T03:14:58.042Z,1014.85
2017-10-17T03:15:58.020Z,1014.86
2017-10-17T03:16:58.003Z,1014.89
2017-10-17T03:17:57.976Z,1014.89
2017-10-17T03:18:57.959Z,1014.91
2017-10-17T03:19:57.934Z,1014.86
2017-10-17T03:20:57.912Z,1014.86
2017-10-17T03:21:57.890Z,1014.87
2017-10-17T03:22:57.868Z,1014.91
2017-10-17T03:23:57.853Z,1014.88
2017-10-17T03:24:57.825Z,1014.85
2017-10-17T03:25:57.804Z,1014.84
2017-10-17T03:26:57.785Z,1014.9
2017-10-17T03:27:57.760Z,1014.98
2017-10-17T03:28:57.742Z,1014.98
2017-10-17T03:29:57.717Z,1014.99
2017-10-17T03:30:57.697Z,1014.99
2017-10-17T03:31:57.676Z,1014.95
2017-10-17T03:32:57.652Z,1015.01
2017-10-17T03:33:57.632Z,1015.03
2017-10-17T03:34:57.614Z,1015.07
2017-10-17T03:35:57.586Z,1015.08
2017-10-17T03:36:57.563Z,1015.08
2017-10-17T03:37:57.544Z,1015.05
2017-10-17T03:38:57.524Z,1015.14
2017-10-17T03:39:57.500Z,1015.11
2017-10-17T03:40:57.478Z,1015.13
2017-10-17T03:41:57.457Z,1015.13
2017-10-17T03:42:57.435Z,1015.13
2017-10-17T03:43:57.412Z,1015.1
2017-10-17T03:44:57.390Z,1015.15
2017-10-17T03:45:57.375Z,1015.18
2017-10-17T03:46:57.349Z,1015.2
2017-10-17T03:47:57.325Z,1015.17
2017-10-17T03:48:57.304Z,1015.2
2017-10-17T03:49:57.283Z,1015.17
2017-10-17T03:50:57.264Z,1015.17
2017-10-17T03:51:57.238Z,1015.14
2017-10-17T03:52:57.219Z,1015.21
2017-10-17T03:53:57.196Z,1015.19
2017-10-17T03:54:57.173Z,1015.2
2017-10-17T03:55:57.151Z,1015.18
2017-10-17T03:56:57.131Z,1015.2
2017-10-17T03:57:57.110Z,1015.21
2017-10-17T03:58:57.089Z,1015.2
2017-10-17T03:59:57.066Z,1015.19
2017-10-17T04:00:57.046Z,1015.24
2017-10-17T04:01:57.024Z,1015.21
2017-10-17T04:02:57.001Z,1015.24
2017-10-17T04:03:57.002Z,1015.25
2017-10-17T04:04:56.957Z,1015.17
2017-10-17T04:05:56.938Z,1015.23
2017-10-17T04:06:56.915Z,1015.24
2017-10-17T04:07:56.891Z,1015.27
2017-10-17T04:08:56.869Z,1015.27
2017-10-17T04:09:56.847Z,1015.26
2017-10-17T04:10:56.828Z,1015.31
2017-10-17T04:11:56.810Z,1015.31
2017-10-17T04:12:56.783Z,1015.32
2017-10-17T04:13:56.760Z,1015.35
2017-10-17T04:14:56.740Z,1015.33
2017-10-17T04:15:56.721Z,1015.33
2017-10-17T04:16:56.694Z,1015.35
2017-10-17T04:17:56.674Z,1015.31
2017-10-17T04:18:56.652Z,1015.35
2017-10-17T04:19:56.653Z,1015.35
2017-10-17T04:20:56.607Z,1015.36
2017-10-17T04:21:56.592Z,1015.35
2017-10-17T04:22:56.567Z,1015.4
2017-10-17T04:23:56.542Z,1015.35
2017-10-17T04:24:56.529Z,1015.38
2017-10-17T04:25:56.499Z,1015.4
2017-10-17T04:26:56.484Z,1015.4
2017-10-17T04:27:56.454Z,1015.38
2017-10-17T04:28:56.434Z,1015.4
2017-10-17T04:29:56.412Z,1015.38
2017-10-17T04:30:56.391Z,1015.38
2017-10-17T04:31:56.370Z,1015.4
2017-10-17T04:32:56.346Z,1015.44
2017-10-17T04:33:56.325Z,1015.44
2017-10-17T04:34:56.301Z,1015.45
2017-10-17T04:35:56.281Z,1015.44
2017-10-17T04:36:56.259Z,1015.42
2017-10-17T04:37:56.236Z,1015.42
2017-10-17T04:38:56.215Z,1015.43
2017-10-17T04:39:56.209Z,1015.49
2017-10-17T04:40:56.175Z,1015.47
2017-10-17T04:41:56.153Z,1015.52
2017-10-17T04:42:56.129Z,1015.52
2017-10-17T04:43:56.107Z,1015.51
2017-10-17T04:44:56.086Z,1015.55
2017-10-17T04:45:56.065Z,1015.54
2017-10-17T04:46:56.041Z,1015.57
2017-10-17T04:47:56.029Z,1015.57
2017-10-17T04:48:56.000Z,1015.56
2017-10-17T04:49:55.976Z,1015.54
2017-10-17T04:50:55.954Z,1015.54
2017-10-17T04:51:55.932Z,1015.55
2017-10-17T04:52:55.913Z,1015.55
2017-10-17T04:53:55.887Z,1015.55
2017-10-17T04:54:55.866Z,1015.61
2017-10-17T04:55:55.848Z,1015.62
2017-10-17T04:56:55.822Z,1015.58
2017-10-17T04:57:55.805Z,1015.58
2017-10-17T04:58:55.779Z,1015.58
2017-10-17T04:59:55.758Z,1015.61
2017-10-17T05:00:55.739Z,1015.63
2017-10-17T05:01:55.714Z,1015.64
2017-10-17T05:02:55.693Z,1015.64
2017-10-17T05:03:55.671Z,1015.62
2017-10-17T05:04:55.650Z,1015.68
2017-10-17T05:05:55.625Z,1015.66
2017-10-17T05:06:55.611Z,1015.6
2017-10-17T05:07:55.582Z,1015.61
2017-10-17T05:08:55.564Z,1015.58
2017-10-17T05:09:55.549Z,1015.59
2017-10-17T05:10:55.517Z,1015.66
2017-10-17T05:11:55.493Z,1015.63
2017-10-17T05:12:55.474Z,1015.67
2017-10-17T05:13:55.454Z,1015.66
2017-10-17T05:14:55.428Z,1015.67
2017-10-17T05:15:55.404Z,1015.69
2017-10-17T05:16:55.387Z,1015.69
2017-10-17T05:17:55.367Z,1015.67
2017-10-17T05:18:55.343Z,1015.67
2017-10-17T05:19:55.322Z,1015.64
2017-10-17T05:20:55.346Z,1015.66
2017-10-17T05:21:55.278Z,1015.68
2017-10-17T05:22:55.257Z,1015.71
2017-10-17T05:23:55.235Z,1015.67
2017-10-17T05:24:55.219Z,1015.66
2017-10-17T05:25:55.190Z,1015.66
2017-10-17T05:26:55.222Z,1015.66
2017-10-17T05:27:55.148Z,1015.66
2017-10-17T05:28:55.127Z,1015.62
2017-10-17T05:29:55.103Z,1015.6
2017-10-17T05:30:55.083Z,1015.67
2017-10-17T05:31:55.061Z,1015.69
2017-10-17T05:32:55.038Z,1015.69
2017-10-17T05:33:55.019Z,1015.66
2017-10-17T05:34:54.999Z,1015.7
2017-10-17T05:35:54.980Z,1015.69
2017-10-17T05:36:54.951Z,1015.63
2017-10-17T05:37:54.931Z,1015.69
2017-10-17T05:38:54.913Z,1015.64
2017-10-17T05:39:54.887Z,1015.66
2017-10-17T05:40:54.865Z,1015.71
2017-10-17T05:41:54.844Z,1015.68
2017-10-17T05:42:54.820Z,1015.66
2017-10-17T05:43:54.802Z,1015.68
2017-10-17T05:44:54.779Z,1015.67
2017-10-17T05:45:54.757Z,1015.68
2017-10-17T05:46:54.733Z,1015.64
2017-10-17T05:47:54.717Z,1015.66
2017-10-17T05:48:54.688Z,1015.7
2017-10-17T05:49:54.673Z,1015.67
2017-10-17T05:50:54.646Z,1015.7
2017-10-17T05:51:54.623Z,1015.73
2017-10-17T05:52:54.601Z,1015.71
2017-10-17T05:53:54.588Z,1015.69
2017-10-17T05:54:54.557Z,1015.67
2017-10-17T05:55:54.540Z,1015.67
2017-10-17T05:56:54.516Z,1015.71
2017-10-17T05:57:54.494Z,1015.67
2017-10-17T05:58:54.471Z,1015.7
2017-10-17T05:59:54.457Z,1015.71
2017-10-17T06:00:54.430Z,1015.73
2017-10-17T06:01:54.411Z,1015.71
2017-10-17T06:02:54.384Z,1015.74
2017-10-17T06:03:54.366Z,1015.76
2017-10-17T06:04:54.341Z,1015.8
2017-10-17T06:05:54.318Z,1015.79
2017-10-17T06:06:54.296Z,1015.8
2017-10-17T06:07:54.284Z,1015.78
2017-10-17T06:08:54.256Z,1015.76
2017-10-17T06:09:54.230Z,1015.76
2017-10-17T06:10:54.210Z,1015.79
2017-10-17T06:11:54.185Z,1015.77
2017-10-17T06:12:54.165Z,1015.81
2017-10-17T06:13:54.142Z,1015.83
2017-10-17T06:14:54.120Z,1015.81
2017-10-17T06:15:54.100Z,1015.83
2017-10-17T06:16:54.076Z,1015.86
2017-10-17T06:17:54.059Z,1015.9
2017-10-17T06:18:54.034Z,1015.89
2017-10-17T06:19:54.012Z,1015.9
2017-10-17T06:20:53.988Z,1015.89
2017-10-17T06:21:53.969Z,1015.94
2017-10-17T06:22:53.947Z,1015.94
2017-10-17T06:23:53.924Z,1015.95
2017-10-17T06:24:53.911Z,1015.98
2017-10-17T06:25:53.881Z,1015.96
2017-10-17T06:26:53.861Z,1015.97
2017-10-17T06:27:53.836Z,1015.97
2017-10-17T06:28:53.818Z,1016.01
2017-10-17T06:29:53.792Z,1016.03
2017-10-17T06:30:53.771Z,1016
2017-10-17T06:31:53.747Z,1015.98
2017-10-17T06:32:53.729Z,1015.97
2017-10-17T06:33:53.706Z,1016.01
2017-10-17T06:34:53.683Z,1015.99
2017-10-17T06:35:53.665Z,1016
2017-10-17T06:36:53.643Z,1016
2017-10-17T06:37:53.625Z,1016.02
2017-10-17T06:38:53.596Z,1016.01
2017-10-17T06:39:53.575Z,1015.98
2017-10-17T06:40:53.553Z,1016.03
2017-10-17T06:41:53.528Z,1016.05
2017-10-17T06:42:53.509Z,1016.1
2017-10-17T06:43:53.487Z,1016.09
2017-10-17T06:44:53.466Z,1016.06
2017-10-17T06:45:53.444Z,1016.07
2017-10-17T06:46:53.426Z,1016.08
2017-10-17T06:47:53.396Z,1016.09
2017-10-17T06:48:53.380Z,1016.05
2017-10-17T06:49:53.356Z,1016.11
2017-10-17T06:50:53.336Z,1016.13
2017-10-17T06:51:53.313Z,1016.12
2017-10-17T06:52:53.292Z,1016.12
2017-10-17T06:53:53.270Z,1016.1
2017-10-17T06:54:53.250Z,1016.14
2017-10-17T06:55:53.227Z,1016.13
2017-10-17T06:56:53.208Z,1016.06
2017-10-17T06:57:53.182Z,1016.05
2017-10-17T06:58:53.162Z,1016.05
2017-10-17T06:59:53.140Z,1016.1
2017-10-17T07:00:53.117Z,1016.07
2017-10-17T07:01:53.097Z,1016.08
2017-10-17T07:02:53.077Z,1016.04
2017-10-17T07:03:53.055Z,1016.05
2017-10-17T07:04:53.030Z,1016.07
2017-10-17T07:05:53.014Z,1016.09
2017-10-17T07:06:52.986Z,1016.07
2017-10-17T07:07:52.970Z,1016.08
2017-10-17T07:08:52.946Z,1016.12
2017-10-17T07:09:52.922Z,1016.07
2017-10-17T07:10:52.907Z,1016.11
2017-10-17T07:11:52.881Z,1016.08
2017-10-17T07:12:52.863Z,1016.11
2017-10-17T07:13:52.837Z,1016.09
2017-10-17T07:14:52.816Z,1016.1
2017-10-17T07:15:52.793Z,1016.14
2017-10-17T07:16:52.770Z,1016.17
2017-10-17T07:17:52.750Z,1016.19
2017-10-17T07:18:52.729Z,1016.2
2017-10-17T07:19:52.708Z,1016.14
2017-10-17T07:20:52.698Z,1016.13
2017-10-17T07:21:52.668Z,1016.16
2017-10-17T07:22:52.644Z,1016.15
2017-10-17T07:23:52.622Z,1016.19
2017-10-17T07:24:52.601Z,1016.19
2017-10-17T07:25:52.578Z,1016.12
2017-10-17T07:26:52.562Z,1016.17
2017-10-17T07:27:52.536Z,1016.18
2017-10-17T07:28:52.515Z,1016.13
2017-10-17T07:29:52.497Z,1016.1
2017-10-17T07:30:52.474Z,1016.1
2017-10-17T07:31:52.450Z,1016.12
2017-10-17T07:32:52.430Z,1016.13
2017-10-17T07:33:52.408Z,1016.17
2017-10-17T07:34:52.396Z,1016.16
2017-10-17T07:35:52.367Z,1016.19
2017-10-17T07:36:52.345Z,1016.12
2017-10-17T07:37:52.323Z,1016.13
2017-10-17T07:38:52.303Z,1016.1
2017-10-17T07:39:52.287Z,1016.1
2017-10-17T07:40:52.260Z,1016.07
2017-10-17T07:41:52.241Z,1016.06
2017-10-17T07:42:52.222Z,1016.05
2017-10-17T07:43:52.196Z,1016.05
2017-10-17T07:44:52.178Z,1016.11
2017-10-17T07:45:52.156Z,1016.16
2017-10-17T07:46:52.138Z,1016.16
2017-10-17T07:47:52.114Z,1016.23
2017-10-17T07:48:52.093Z,1016.16
2017-10-17T07:49:52.072Z,1016.17
2017-10-17T07:50:52.053Z,1016.2
2017-10-17T07:51:52.026Z,1016.2
2017-10-17T07:52:52.006Z,1016.18
2017-10-17T07:53:51.986Z,1016.21
2017-10-17T07:54:51.964Z,1016.17
2017-10-17T07:55:51.944Z,1016.15
2017-10-17T07:56:51.917Z,1016.17
2017-10-17T07:57:51.903Z,1016.15
2017-10-17T07:58:51.880Z,1016.18
2017-10-17T07:59:51.859Z,1016.13
2017-10-17T08:00:51.838Z,1016.12
2017-10-17T08:01:51.817Z,1016.11
2017-10-17T08:02:51.795Z,1016.09
2017-10-17T08:03:51.777Z,1016.14
2017-10-17T08:04:51.755Z,1016.14
2017-10-17T08:05:51.734Z,1016.14
2017-10-17T08:06:51.713Z,1016.13
2017-10-17T08:07:51.691Z,1016.15
2017-10-17T08:08:51.669Z,1016.09
2017-10-17T08:09:51.649Z,1016.16
2017-10-17T08:10:51.628Z,1016.12
2017-10-17T08:11:51.609Z,1016.16
2017-10-17T08:12:51.587Z,1016.17
2017-10-17T08:13:51.567Z,1016.16
2017-10-17T08:14:51.545Z,1016.2
2017-10-17T08:15:51.526Z,1016.17
2017-10-17T08:16:51.505Z,1016.18
2017-10-17T08:17:51.485Z,1016.17
2017-10-17T08:18:51.466Z,1016.16
2017-10-17T08:19:51.443Z,1016.16
2017-10-17T08:20:51.419Z,1016.14
2017-10-17T08:21:51.400Z,1016.14
2017-10-17T08:22:51.380Z,1016.18
2017-10-17T08:23:51.362Z,1016.14
2017-10-17T08:24:51.337Z,1016.14
2017-10-17T08:25:51.318Z,1016.24
2017-10-17T08:26:51.302Z,1016.14
2017-10-17T08:27:51.276Z,1016.16
2017-10-17T08:28:51.256Z,1016.11
2017-10-17T08:29:51.236Z,1016.05
2017-10-17T08:30:51.219Z,1016.08
2017-10-17T08:31:51.194Z,1016.06
2017-10-17T08:32:51.184Z,1016.1
2017-10-17T08:33:51.156Z,1016.08
2017-10-17T08:34:51.134Z,1016.13
2017-10-17T08:35:51.113Z,1016.07
2017-10-17T08:36:51.093Z,1016.08
2017-10-17T08:37:51.073Z,1016.04
2017-10-17T08:38:51.051Z,1016.02
2017-10-17T08:39:51.030Z,1016.01
2017-10-17T08:40:51.011Z,1015.98
2017-10-17T08:41:50.990Z,1015.97
2017-10-17T08:42:50.970Z,1015.92
2017-10-17T08:43:50.949Z,1015.96
2017-10-17T08:44:50.940Z,1015.92
2017-10-17T08:45:50.909Z,1015.9
2017-10-17T08:46:50.888Z,1015.91
2017-10-17T08:47:50.869Z,1015.93
2017-10-17T08:48:50.851Z,1015.96
2017-10-17T08:49:50.826Z,1015.93
2017-10-17T08:50:50.805Z,1015.99
2017-10-17T08:51:50.787Z,1015.9
2017-10-17T08:52:50.766Z,1015.88
2017-10-17T08:53:50.744Z,1015.9
2017-10-17T08:54:50.726Z,1015.91
2017-10-17T08:55:50.711Z,1015.96
2017-10-17T08:56:50.685Z,1015.94
2017-10-17T08:57:50.722Z,1015.96
2017-10-17T08:58:50.644Z,1015.93
2017-10-17T08:59:50.622Z,1015.91
2017-10-17T09:00:50.603Z,1015.88
2017-10-17T09:01:50.585Z,1015.88
2017-10-17T09:02:50.565Z,1015.87
2017-10-17T09:03:50.543Z,1015.86
2017-10-17T09:04:50.519Z,1015.87
2017-10-17T09:05:50.500Z,1015.88
2017-10-17T09:06:50.483Z,1015.93
2017-10-17T09:07:50.461Z,1015.84
2017-10-17T09:08:50.438Z,1015.91
2017-10-17T09:09:50.420Z,1015.93
2017-10-17T09:10:50.403Z,1015.94
2017-10-17T09:11:50.380Z,1015.96
2017-10-17T09:12:50.361Z,1015.96
2017-10-17T09:13:50.344Z,1015.96
2017-10-17T09:14:50.321Z,1015.97
2017-10-17T09:15:50.298Z,1015.97
2017-10-17T09:16:50.281Z,1015.99
2017-10-17T09:17:50.261Z,1015.97
2017-10-17T09:18:50.245Z,1015.96
2017-10-17T09:19:50.224Z,1015.99
2017-10-17T09:20:50.198Z,1016.04
2017-10-17T09:21:50.183Z,1016.04
2017-10-17T09:22:50.158Z,1015.98
2017-10-17T09:23:50.140Z,1016.01
2017-10-17T09:24:50.118Z,1016.04
2017-10-17T09:25:50.104Z,1016.07
2017-10-17T09:26:50.081Z,1016.05
2017-10-17T09:27:50.058Z,1016.02
2017-10-17T09:28:50.040Z,1016.07
2017-10-17T09:29:50.020Z,1016.07
2017-10-17T09:30:49.999Z,1016.07
2017-10-17T09:31:49.981Z,1016.07
2017-10-17T09:32:49.958Z,1016.07
2017-10-17T09:33:49.939Z,1016.08
2017-10-17T09:34:49.919Z,1016.05
2017-10-17T09:35:49.899Z,1016.1
2017-10-17T09:36:49.902Z,1016.08
2017-10-17T09:37:49.858Z,1016.06
2017-10-17T09:38:49.837Z,1016.02
2017-10-17T09:39:50.120Z,1016.04
2017-10-17T09:40:49.800Z,1016.01
2017-10-17T09:41:49.777Z,1016.03
2017-10-17T09:42:49.760Z,1016
2017-10-17T09:43:49.738Z,1016.05
2017-10-17T09:44:49.717Z,1015.99
2017-10-17T09:45:49.701Z,1016.01
2017-10-17T09:46:49.685Z,1015.99
2017-10-17T09:47:49.657Z,1015.99
2017-10-17T09:48:49.639Z,1016
2017-10-17T09:49:49.617Z,1016.05
2017-10-17T09:50:49.600Z,1016.02
2017-10-17T09:51:49.583Z,1016.05
2017-10-17T09:52:49.560Z,1016.01
2017-10-17T09:53:49.542Z,1016.02
2017-10-17T09:54:49.521Z,1016.04
2017-10-17T09:55:49.502Z,1015.99
2017-10-17T09:56:49.487Z,1016
2017-10-17T09:57:49.462Z,1016.02
2017-10-17T09:58:49.442Z,1015.98
2017-10-17T09:59:49.421Z,1015.99
2017-10-17T10:00:49.407Z,1016
2017-10-17T10:01:49.382Z,1015.99
2017-10-17T10:02:49.363Z,1016
2017-10-17T10:03:49.349Z,1016.03
2017-10-17T10:04:49.327Z,1016.01
2017-10-17T10:05:49.306Z,1016.01
2017-10-17T10:06:49.283Z,1016.03
2017-10-17T10:07:49.264Z,1016.07
2017-10-17T10:08:49.244Z,1016.05
2017-10-17T10:09:49.223Z,1016.08
2017-10-17T10:10:49.204Z,1016.07
2017-10-17T10:11:49.184Z,1016.02
2017-10-17T10:12:49.163Z,1016.01
2017-10-17T10:13:49.147Z,1016.06
2017-10-17T10:14:49.127Z,1016.01
2017-10-17T10:15:49.113Z,1016.06
2017-10-17T10:16:49.086Z,1016.06
2017-10-17T10:17:49.064Z,1016.03
2017-10-17T10:18:49.044Z,1016.01
2017-10-17T10:19:49.025Z,1015.98
2017-10-17T10:20:49.006Z,1016
2017-10-17T10:21:48.984Z,1015.97
2017-10-17T10:22:48.969Z,1015.99
2017-10-17T10:23:48.945Z,1016
2017-10-17T10:24:48.927Z,1015.93
2017-10-17T10:25:48.907Z,1015.95
2017-10-17T10:26:48.887Z,1015.94
2017-10-17T10:27:48.867Z,1015.96
2017-10-17T10:28:48.852Z,1015.96
2017-10-17T10:29:48.828Z,1015.92
2017-10-17T10:30:48.807Z,1015.96
2017-10-17T10:31:48.793Z,1015.94
2017-10-17T10:32:48.769Z,1015.96
2017-10-17T10:33:48.750Z,1015.96
2017-10-17T10:34:48.730Z,1015.92
2017-10-17T10:35:48.711Z,1015.89
2017-10-17T10:36:48.691Z,1015.92
2017-10-17T10:37:48.671Z,1015.86
2017-10-17T10:38:48.653Z,1015.83
2017-10-17T10:39:48.634Z,1015.87
2017-10-17T10:40:48.612Z,1015.83
2017-10-17T10:41:48.595Z,1015.83
2017-10-17T10:42:48.569Z,1015.86
2017-10-17T10:43:48.557Z,1015.84
2017-10-17T10:44:48.532Z,1015.89
2017-10-17T10:45:48.515Z,1015.85
2017-10-17T10:46:48.492Z,1015.84
2017-10-17T10:47:48.482Z,1015.83
2017-10-17T10:48:48.480Z,1015.85
2017-10-17T10:49:48.440Z,1015.81
2017-10-17T10:50:48.419Z,1015.82
2017-10-17T10:51:48.399Z,1015.8
2017-10-17T10:52:48.379Z,1015.79
2017-10-17T10:53:48.360Z,1015.82
2017-10-17T10:54:48.338Z,1015.78
2017-10-17T10:55:48.320Z,1015.81
2017-10-17T10:56:48.302Z,1015.8
2017-10-17T10:57:48.283Z,1015.8
2017-10-17T10:58:48.259Z,1015.76
2017-10-17T10:59:48.239Z,1015.77
2017-10-17T11:00:48.221Z,1015.76
2017-10-17T11:01:48.204Z,1015.76
2017-10-17T11:02:48.187Z,1015.76
2017-10-17T11:03:48.164Z,1015.74
2017-10-17T11:04:48.147Z,1015.74
2017-10-17T11:05:48.122Z,1015.72
2017-10-17T11:06:48.104Z,1015.71
2017-10-17T11:07:48.089Z,1015.7
2017-10-17T11:08:48.063Z,1015.73
2017-10-17T11:09:48.044Z,1015.73
2017-10-17T11:10:48.025Z,1015.75
2017-10-17T11:11:48.006Z,1015.68
2017-10-17T11:12:48.001Z,1015.68
2017-10-17T11:13:47.971Z,1015.71
2017-10-17T11:14:47.949Z,1015.63
2017-10-17T11:15:47.932Z,1015.63
2017-10-17T11:16:47.909Z,1015.62
2017-10-17T11:17:47.892Z,1015.61
2017-10-17T11:18:47.872Z,1015.62
2017-10-17T11:19:47.850Z,1015.61
2017-10-17T11:20:47.832Z,1015.58
2017-10-17T11:21:47.816Z,1015.6
2017-10-17T11:22:47.791Z,1015.6
2017-10-17T11:23:47.775Z,1015.57
2017-10-17T11:24:47.751Z,1015.55
2017-10-17T11:25:47.735Z,1015.59
2017-10-17T11:26:47.719Z,1015.52
2017-10-17T11:27:47.697Z,1015.51
2017-10-17T11:28:47.676Z,1015.53
2017-10-17T11:29:47.656Z,1015.51
2017-10-17T11:30:47.642Z,1015.51
2017-10-17T11:31:47.622Z,1015.55
2017-10-17T11:32:47.598Z,1015.53
2017-10-17T11:33:47.580Z,1015.53
2017-10-17T11:34:47.558Z,1015.59
2017-10-17T11:35:47.539Z,1015.51
2017-10-17T11:36:47.520Z,1015.54
2017-10-17T11:37:47.500Z,1015.51
2017-10-17T11:38:47.483Z,1015.53
2017-10-17T11:39:47.462Z,1015.47
2017-10-17T11:40:47.443Z,1015.44
2017-10-17T11:41:47.424Z,1015.44
2017-10-17T11:42:47.403Z,1015.39
2017-10-17T11:43:47.388Z,1015.42
2017-10-17T11:44:47.369Z,1015.4
2017-10-17T11:45:47.344Z,1015.4
2017-10-17T11:46:47.327Z,1015.41
2017-10-17T11:47:47.306Z,1015.35
2017-10-17T11:48:47.288Z,1015.34
2017-10-17T11:49:47.266Z,1015.38
2017-10-17T11:50:47.247Z,1015.33
2017-10-17T11:51:47.229Z,1015.31
2017-10-17T11:52:47.208Z,1015.35
2017-10-17T11:53:47.194Z,1015.35
2017-10-17T11:54:47.167Z,1015.36
2017-10-17T11:55:47.150Z,1015.34
2017-10-17T11:56:47.170Z,1015.29
2017-10-17T11:57:47.110Z,1015.3
2017-10-17T11:58:47.089Z,1015.25
2017-10-17T11:59:47.070Z,1015.31
2017-10-17T12:00:47.052Z,1015.26
2017-10-17T12:01:47.031Z,1015.23
2017-10-17T12:02:47.013Z,1015.26
2017-10-17T12:03:46.990Z,1015.19
2017-10-17T12:04:46.970Z,1015.22
2017-10-17T12:05:46.953Z,1015.21
2017-10-17T12:06:46.932Z,1015.14
2017-10-17T12:07:46.911Z,1015.13